2039 UTC 06 May 2016 found at http://aviationweather.gov/adds/metars/
 
METAR text: KAFF 061958Z 16015G23KT 10SM SCT100 SCT220 22/00 A3000 RMK AO2A PK WND 18028/48 SLP072 VIRGA DSNT N
Conditions at: KAFF (USAF ACADEMY/COS, CO, US) observed 1958 UTC 06 May 2016
Temperature: 22.0°C (72°F)
Dewpoint: 0.0°C (32°F) [RH = 23%]
Pressure (altimeter): 30.00 inches Hg (1016.0 mb[Sea-level pressure: 1007.2 mb]
Winds: from the SSE (160 degrees) at 17 MPH (15 knots; 7.8 m/sgusting to 26 MPH (23 knots; 12.0 m/s)
Visibility: 10 or more miles (16+ km)
Ceiling: at least 12,000 feet AGL
Clouds: scattered clouds at 10000 feet AGL
scattered clouds at 22000 feet AGL
Weather: no significant weather observed at this time

METAR text: KAFF 061858Z 15012G24KT 10SM FEW090 FEW120 SCT220 25/00 A3001 RMK AO2A PK WND 15026/56 SLP084
Conditions at: KAFF (USAF ACADEMY/COS, CO, US) observed 1858 UTC 06 May 2016
Temperature: 25.0°C (77°F)
Dewpoint: 0.0°C (32°F) [RH = 19%]
Pressure (altimeter): 30.01 inches Hg (1016.3 mb[Sea-level pressure: 1008.4 mb]
Winds: from the SSE (150 degrees) at 14 MPH (12 knots; 6.2 m/sgusting to 28 MPH (24 knots; 12.5 m/s)
Visibility: 10 or more miles (16+ km)
Ceiling: at least 12,000 feet AGL
Clouds: few clouds at 9000 feet AGL
few clouds at 12000 feet AGL
scattered clouds at 22000 feet AGL
Weather: no significant weather observed at this time

METAR text: KAFF 061758Z 14009KT 10SM FEW100 FEW150 SCT220 24/M01 A3004 RMK AO2A SLP085
Conditions at: KAFF (USAF ACADEMY/COS, CO, US) observed 1758 UTC 06 May 2016
Temperature: 24.0°C (75°F)
Dewpoint: -1.0°C (30°F) [RH = 19%]
Pressure (altimeter): 30.04 inches Hg (1017.4 mb[Sea-level pressure: 1008.5 mb]
Winds: from the SE (140 degrees) at 10 MPH (9 knots; 4.7 m/s)
Visibility: 10 or more miles (16+ km)
Ceiling: at least 12,000 feet AGL
Clouds: few clouds at 10000 feet AGL
few clouds at 15000 feet AGL
scattered clouds at 22000 feet AGL
Weather: no significant weather observed at this time

METAR text: KAFF 061658Z 15010KT 10SM FEW100 FEW150 SCT220 20/02 A3006 RMK AO2A SLP102
Conditions at: KAFF (USAF ACADEMY/COS, CO, US) observed 1658 UTC 06 May 2016
Temperature: 20.0°C (68°F)
Dewpoint: 2.0°C (36°F) [RH = 30%]
Pressure (altimeter): 30.06 inches Hg (1018.0 mb[Sea-level pressure: 1010.2 mb]
Winds: from the SSE (150 degrees) at 12 MPH (10 knots; 5.2 m/s)
Visibility: 10 or more miles (16+ km)
Ceiling: at least 12,000 feet AGL
Clouds: few clouds at 10000 feet AGL
few clouds at 15000 feet AGL
scattered clouds at 22000 feet AGL
Weather: no significant weather observed at this time

METAR text: KAFF 061558Z 17005KT 10SM FEW120 FEW220 21/02 A3006 RMK AO2A SLP097
Conditions at: KAFF (USAF ACADEMY/COS, CO, US) observed 1558 UTC 06 May 2016
Temperature: 21.0°C (70°F)
Dewpoint: 2.0°C (36°F) [RH = 28%]
Pressure (altimeter): 30.06 inches Hg (1018.0 mb[Sea-level pressure: 1009.7 mb]
Winds: from the S (170 degrees) at 6 MPH (5 knots; 2.6 m/s)
Visibility: 10 or more miles (16+ km)
Ceiling: at least 12,000 feet AGL
Clouds: few clouds at 12000 feet AGL
few clouds at 22000 feet AGL
Weather: no significant weather observed at this time

METAR text: KAFF 061458Z 17005KT 10SM FEW120 FEW220 17/02 A3007 RMK AO2A SLP106
Conditions at: KAFF (USAF ACADEMY/COS, CO, US) observed 1458 UTC 06 May 2016
Temperature: 17.0°C (63°F)
Dewpoint: 2.0°C (36°F) [RH = 36%]
Pressure (altimeter): 30.07 inches Hg (1018.4 mb[Sea-level pressure: 1010.6 mb]
Winds: from the S (170 degrees) at 6 MPH (5 knots; 2.6 m/s)
Visibility: 10 or more miles (16+ km)
Ceiling: at least 12,000 feet AGL
Clouds: few clouds at 12000 feet AGL
few clouds at 22000 feet AGL
Weather: no significant weather observed at this time

METAR text: KAFF 061358Z 01005KT 10SM FEW120 SCT220 12/04 A3008 RMK AO2A SLP114
Conditions at: KAFF (USAF ACADEMY/COS, CO, US) observed 1358 UTC 06 May 2016
Temperature: 12.0°C (54°F)
Dewpoint: 4.0°C (39°F) [RH = 58%]
Pressure (altimeter): 30.08 inches Hg (1018.7 mb[Sea-level pressure: 1011.4 mb]
Winds: from the N (10 degrees) at 6 MPH (5 knots; 2.6 m/s)
Visibility: 10 or more miles (16+ km)
Ceiling: at least 12,000 feet AGL
Clouds: few clouds at 12000 feet AGL
scattered clouds at 22000 feet AGL
Weather: no significant weather observed at this time

METAR text: KAFF 061258Z 33006KT 10SM FEW150 SCT220 06/03 A3006 RMK AO2A SLP117
Conditions at: KAFF (USAF ACADEMY/COS, CO, US) observed 1258 UTC 06 May 2016
Temperature: 6.0°C (43°F)
Dewpoint: 3.0°C (37°F) [RH = 81%]
Pressure (altimeter): 30.06 inches Hg (1018.0 mb[Sea-level pressure: 1011.7 mb]
Winds: from the NNW (330 degrees) at 7 MPH (6 knots; 3.1 m/s)
Visibility: 10 or more miles (16+ km)
Ceiling: at least 12,000 feet AGL
Clouds: few clouds at 15000 feet AGL
scattered clouds at 22000 feet AGL
Weather: no significant weather observed at this time

METAR text: KAFF 061158Z 01007KT 10SM CLR 05/03 A3005 RMK AO2A SLP107
Conditions at: KAFF (USAF ACADEMY/COS, CO, US) observed 1158 UTC 06 May 2016
Temperature: 5.0°C (41°F)
Dewpoint: 3.0°C (37°F) [RH = 87%]
Pressure (altimeter): 30.05 inches Hg (1017.7 mb[Sea-level pressure: 1010.7 mb]
Winds: from the N (10 degrees) at 8 MPH (7 knots; 3.6 m/s)
Visibility: 10 or more miles (16+ km)
Ceiling: at least 12,000 feet AGL
Clouds: sky clear below 12,000 feet AGL
Weather: no significant weather observed at this time

METAR text: KAFF 061058Z 36009KT 10SM CLR 05/02 A3006 RMK AO2A SLP108
Conditions at: KAFF (USAF ACADEMY/COS, CO, US) observed 1058 UTC 06 May 2016
Temperature: 5.0°C (41°F)
Dewpoint: 2.0°C (36°F) [RH = 81%]
Pressure (altimeter): 30.06 inches Hg (1018.0 mb[Sea-level pressure: 1010.8 mb]
Winds: from the N (360 degrees) at 10 MPH (9 knots; 4.7 m/s)
Visibility: 10 or more miles (16+ km)
Ceiling: at least 12,000 feet AGL
Clouds: sky clear below 12,000 feet AGL
Weather: no significant weather observed at this time

METAR text: KAFF 060958Z AUTO 36006KT 10SM CLR 06/02 A3006 RMK AO2 SLP107
Conditions at: KAFF (USAF ACADEMY/COS, CO, US) observed 0958 UTC 06 May 2016
Temperature: 6.0°C (43°F)
Dewpoint: 2.0°C (36°F) [RH = 75%]
Pressure (altimeter): 30.06 inches Hg (1018.0 mb[Sea-level pressure: 1010.7 mb]
Winds: from the N (360 degrees) at 7 MPH (6 knots; 3.1 m/s)
Visibility: 10 or more miles (16+ km)
Ceiling: at least 12,000 feet AGL
Clouds: sky clear below 12,000 feet AGL
Weather: automated observation with no human augmentation;
there may or may not be significant weather present at this time

METAR text: KAFF 060858Z AUTO 35007KT 10SM CLR 07/03 A3005 RMK AO2 SLP104 57020
Conditions at: KAFF (USAF ACADEMY/COS, CO, US) observed 0858 UTC 06 May 2016
Temperature: 7.0°C (45°F)
Dewpoint: 3.0°C (37°F) [RH = 76%]
Pressure (altimeter): 30.05 inches Hg (1017.7 mb[Sea-level pressure: 1010.4 mb]
Winds: from the N (350 degrees) at 8 MPH (7 knots; 3.6 m/s)
Visibility: 10 or more miles (16+ km)
Ceiling: at least 12,000 feet AGL
Clouds: sky clear below 12,000 feet AGL
Weather: automated observation with no human augmentation;
there may or may not be significant weather present at this time

METAR text: KAFF 060758Z AUTO 36004KT 10SM CLR 08/03 A3007 RMK AO2 SLP106
Conditions at: KAFF (USAF ACADEMY/COS, CO, US) observed 0758 UTC 06 May 2016
Temperature: 8.0°C (46°F)
Dewpoint: 3.0°C (37°F) [RH = 71%]
Pressure (altimeter): 30.07 inches Hg (1018.4 mb[Sea-level pressure: 1010.6 mb]
Winds: from the N (360 degrees) at 5 MPH (4 knots; 2.1 m/s)
Visibility: 10 or more miles (16+ km)
Ceiling: at least 12,000 feet AGL
Clouds: sky clear below 12,000 feet AGL
Weather: automated observation with no human augmentation;
there may or may not be significant weather present at this time

METAR text: KAFF 060658Z AUTO 35002KT 10SM CLR 09/03 A3009 RMK AO2 SLP113
Conditions at: KAFF (USAF ACADEMY/COS, CO, US) observed 0658 UTC 06 May 2016
Temperature: 9.0°C (48°F)
Dewpoint: 3.0°C (37°F) [RH = 66%]
Pressure (altimeter): 30.09 inches Hg (1019.0 mb[Sea-level pressure: 1011.3 mb]
Winds: from the N (350 degrees) at 2 MPH (2 knots; 1.0 m/s)
Visibility: 10 or more miles (16+ km)
Ceiling: at least 12,000 feet AGL
Clouds: sky clear below 12,000 feet AGL
Weather: automated observation with no human augmentation;
there may or may not be significant weather present at this time

METAR text: KAFF 060558Z AUTO 12002KT 10SM CLR 13/03 A3012 RMK AO2 SLP118 50003
Conditions at: KAFF (USAF ACADEMY/COS, CO, US) observed 0558 UTC 06 May 2016
Temperature: 13.0°C (55°F)
Dewpoint: 3.0°C (37°F) [RH = 51%]
Pressure (altimeter): 30.12 inches Hg (1020.1 mb[Sea-level pressure: 1011.8 mb]
Winds: from the ESE (120 degrees) at 2 MPH (2 knots; 1.0 m/s)
Visibility: 10 or more miles (16+ km)
Ceiling: at least 12,000 feet AGL
Clouds: sky clear below 12,000 feet AGL
Weather: automated observation with no human augmentation;
there may or may not be significant weather present at this time

METAR text: KAFF 060458Z AUTO 16005KT 10SM CLR 14/03 A3014 RMK AO2 SLP125
Conditions at: KAFF (USAF ACADEMY/COS, CO, US) observed 0458 UTC 06 May 2016
Temperature: 14.0°C (57°F)
Dewpoint: 3.0°C (37°F) [RH = 47%]
Pressure (altimeter): 30.14 inches Hg (1020.7 mb[Sea-level pressure: 1012.5 mb]
Winds: from the SSE (160 degrees) at 6 MPH (5 knots; 2.6 m/s)
Visibility: 10 or more miles (16+ km)
Ceiling: at least 12,000 feet AGL
Clouds: sky clear below 12,000 feet AGL
Weather: automated observation with no human augmentation;
there may or may not be significant weather present at this time

METAR text: KAFF 060358Z AUTO 17010KT 10SM FEW140 15/02 A3014 RMK AO2 SLP120
Conditions at: KAFF (USAF ACADEMY/COS, CO, US) observed 0358 UTC 06 May 2016
Temperature: 15.0°C (59°F)
Dewpoint: 2.0°C (36°F) [RH = 41%]
Pressure (altimeter): 30.14 inches Hg (1020.7 mb[Sea-level pressure: 1012.0 mb]
Winds: from the S (170 degrees) at 12 MPH (10 knots; 5.2 m/s)
Visibility: 10 or more miles (16+ km)
Ceiling: at least 12,000 feet AGL
Clouds: few clouds at 14000 feet AGL
Weather: automated observation with no human augmentation;
there may or may not be significant weather present at this time

METAR text: KAFF 060258Z AUTO 18006KT 10SM CLR 16/00 A3011 RMK AO2 SLP115 53010
Conditions at: KAFF (USAF ACADEMY/COS, CO, US) observed 0258 UTC 06 May 2016
Temperature: 16.0°C (61°F)
Dewpoint: 0.0°C (32°F) [RH = 34%]
Pressure (altimeter): 30.11 inches Hg (1019.7 mb[Sea-level pressure: 1011.5 mb]
Winds: from the S (180 degrees) at 7 MPH (6 knots; 3.1 m/s)
Visibility: 10 or more miles (16+ km)
Ceiling: at least 12,000 feet AGL
Clouds: sky clear below 12,000 feet AGL
Weather: automated observation with no human augmentation;
there may or may not be significant weather present at this time

METAR text: KAFF 060158Z AUTO 14012KT 10SM CLR 19/M02 A3008 RMK AO2 SLP109
Conditions at: KAFF (USAF ACADEMY/COS, CO, US) observed 0158 UTC 06 May 2016
Temperature: 19.0°C (66°F)
Dewpoint: -2.0°C (28°F) [RH = 24%]
Pressure (altimeter): 30.08 inches Hg (1018.7 mb[Sea-level pressure: 1010.9 mb]
Winds: from the SE (140 degrees) at 14 MPH (12 knots; 6.2 m/s)
Visibility: 10 or more miles (16+ km)
Ceiling: at least 12,000 feet AGL
Clouds: sky clear below 12,000 feet AGL
Weather: automated observation with no human augmentation;
there may or may not be significant weather present at this time

METAR text: KAFF 060058Z AUTO 15013G20KT 10SM CLR 21/M03 A3007 RMK AO2 SLP121
Conditions at: KAFF (USAF ACADEMY/COS, CO, US) observed 0058 UTC 06 May 2016
Temperature: 21.0°C (70°F)
Dewpoint: -3.0°C (27°F) [RH = 20%]
Pressure (altimeter): 30.07 inches Hg (1018.4 mb[Sea-level pressure: 1012.1 mb]
Winds: from the SSE (150 degrees) at 15 MPH (13 knots; 6.8 m/sgusting to 23 MPH (20 knots; 10.4 m/s)
Visibility: 10 or more miles (16+ km)
Ceiling: at least 12,000 feet AGL
Clouds: sky clear below 12,000 feet AGL
Weather: automated observation with no human augmentation;
there may or may not be significant weather present at this time

METAR text: KAFF 052358Z AUTO 17012KT 10SM BKN130 22/M03 A3008 RMK AO2 SLP130 57012
Conditions at: KAFF (USAF ACADEMY/COS, CO, US) observed 2358 UTC 05 May 2016
Temperature: 22.0°C (72°F)
Dewpoint: -3.0°C (27°F) [RH = 19%]
Pressure (altimeter): 30.08 inches Hg (1018.7 mb[Sea-level pressure: 1013.0 mb]
Winds: from the S (170 degrees) at 14 MPH (12 knots; 6.2 m/s)
Visibility: 10 or more miles (16+ km)
Ceiling: 13000 feet AGL
Clouds: broken clouds at 13000 feet AGL
Weather: automated observation with no human augmentation;
there may or may not be significant weather present at this time

METAR text: KAFF 052258Z AUTO 17014KT 10SM FEW130 24/M03 A3008 RMK AO2 SLP124
Conditions at: KAFF (USAF ACADEMY/COS, CO, US) observed 2258 UTC 05 May 2016
Temperature: 24.0°C (75°F)
Dewpoint: -3.0°C (27°F) [RH = 16%]
Pressure (altimeter): 30.08 inches Hg (1018.7 mb[Sea-level pressure: 1012.4 mb]
Winds: from the S (170 degrees) at 16 MPH (14 knots; 7.3 m/s)
Visibility: 10 or more miles (16+ km)
Ceiling: at least 12,000 feet AGL
Clouds: few clouds at 13000 feet AGL
Weather: automated observation with no human augmentation;
there may or may not be significant weather present at this time

METAR text: KAFF 052246Z AUTO 20013G21KT 10SM FEW130 24/M04 A3008 RMK AO2 WSHFT 44
Conditions at: KAFF (USAF ACADEMY/COS, CO, US) observed 2246 UTC 05 May 2016
Temperature: 24.0°C (75°F)
Dewpoint: -4.0°C (25°F) [RH = 15%]
Pressure (altimeter): 30.08 inches Hg (1018.7 mb)
Winds: from the SSW (200 degrees) at 15 MPH (13 knots; 6.8 m/sgusting to 24 MPH (21 knots; 10.9 m/s)
Visibility: 10 or more miles (16+ km)
Ceiling: at least 12,000 feet AGL
Clouds: few clouds at 13000 feet AGL
Weather: automated observation with no human augmentation;
there may or may not be significant weather present at this time

METAR text: KAFF 052158Z AUTO 11011G17KT 10SM FEW130 25/M02 A3010 RMK AO2 SLP131
Conditions at: KAFF (USAF ACADEMY/COS, CO, US) observed 2158 UTC 05 May 2016
Temperature: 25.0°C (77°F)
Dewpoint: -2.0°C (28°F) [RH = 17%]
Pressure (altimeter): 30.10 inches Hg (1019.4 mb[Sea-level pressure: 1013.1 mb]
Winds: from the ESE (110 degrees) at 13 MPH (11 knots; 5.7 m/sgusting to 20 MPH (17 knots; 8.8 m/s)
Visibility: 10 or more miles (16+ km)
Ceiling: at least 12,000 feet AGL
Clouds: few clouds at 13000 feet AGL
Weather: automated observation with no human augmentation;
there may or may not be significant weather present at this time

METAR text: KAFF 052058Z AUTO VRB03KT 10SM BKN120 24/M03 A3012 RMK AO2 SLP139 57016
Conditions at: KAFF (USAF ACADEMY/COS, CO, US) observed 2058 UTC 05 May 2016
Temperature: 24.0°C (75°F)
Dewpoint: -3.0°C (27°F) [RH = 16%]
Pressure (altimeter): 30.12 inches Hg (1020.1 mb[Sea-level pressure: 1013.9 mb]
Winds: variable direction winds at 3 MPH (3 knots; 1.6 m/s)
Visibility: 10 or more miles (16+ km)
Ceiling: 12000 feet AGL
Clouds: broken clouds at 12000 feet AGL
Weather: automated observation with no human augmentation;
there may or may not be significant weather present at this time

METAR text: KAFF 051958Z AUTO 19011KT 10SM SCT110 25/M03 A3014 RMK AO2 SLP140
Conditions at: KAFF (USAF ACADEMY/COS, CO, US) observed 1958 UTC 05 May 2016
Temperature: 25.0°C (77°F)
Dewpoint: -3.0°C (27°F) [RH = 15%]
Pressure (altimeter): 30.14 inches Hg (1020.7 mb[Sea-level pressure: 1014.0 mb]
Winds: from the S (190 degrees) at 13 MPH (11 knots; 5.7 m/s)
Visibility: 10 or more miles (16+ km)
Ceiling: at least 12,000 feet AGL
Clouds: scattered clouds at 11000 feet AGL
Weather: automated observation with no human augmentation;
there may or may not be significant weather present at this time

METAR text: KAFF 051858Z AUTO 16007KT 10SM CLR 24/M07 A3015 RMK AO2 SLP144
Conditions at: KAFF (USAF ACADEMY/COS, CO, US) observed 1858 UTC 05 May 2016
Temperature: 24.0°C (75°F)
Dewpoint: -7.0°C (19°F) [RH = 12%]
Pressure (altimeter): 30.15 inches Hg (1021.1 mb[Sea-level pressure: 1014.4 mb]
Winds: from the SSE (160 degrees) at 8 MPH (7 knots; 3.6 m/s)
Visibility: 10 or more miles (16+ km)
Ceiling: at least 12,000 feet AGL
Clouds: sky clear below 12,000 feet AGL
Weather: automated observation with no human augmentation;
there may or may not be significant weather present at this time

METAR text: KAFF 051758Z AUTO VRB02KT 10SM CLR 23/M06 A3018 RMK AO2 SLP160 57009
Conditions at: KAFF (USAF ACADEMY/COS, CO, US) observed 1758 UTC 05 May 2016
Temperature: 23.0°C (73°F)
Dewpoint: -6.0°C (21°F) [RH = 14%]
Pressure (altimeter): 30.18 inches Hg (1022.1 mb[Sea-level pressure: 1016.0 mb]
Winds: variable direction winds at 2 MPH (2 knots; 1.0 m/s)
Visibility: 10 or more miles (16+ km)
Ceiling: at least 12,000 feet AGL
Clouds: sky clear below 12,000 feet AGL
Weather: automated observation with no human augmentation;
there may or may not be significant weather present at this time

METAR text: KAFF 051658Z AUTO VRB06KT 10SM CLR 22/M06 A3019 RMK AO2 SLP163
Conditions at: KAFF (USAF ACADEMY/COS, CO, US) observed 1658 UTC 05 May 2016
Temperature: 22.0°C (72°F)
Dewpoint: -6.0°C (21°F) [RH = 15%]
Pressure (altimeter): 30.19 inches Hg (1022.4 mb[Sea-level pressure: 1016.3 mb]
Winds: variable direction winds at 7 MPH (6 knots; 3.1 m/s)
Visibility: 10 or more miles (16+ km)
Ceiling: at least 12,000 feet AGL
Clouds: sky clear below 12,000 feet AGL
Weather: automated observation with no human augmentation;
there may or may not be significant weather present at this time

METAR text: KAFF 051558Z AUTO 30009KT 10SM CLR 22/M06 A3021 RMK AO2 SLP155
Conditions at: KAFF (USAF ACADEMY/COS, CO, US) observed 1558 UTC 05 May 2016
Temperature: 22.0°C (72°F)
Dewpoint: -6.0°C (21°F) [RH = 15%]
Pressure (altimeter): 30.21 inches Hg (1023.1 mb[Sea-level pressure: 1015.5 mb]
Winds: from the WNW (300 degrees) at 10 MPH (9 knots; 4.7 m/s)
Visibility: 10 or more miles (16+ km)
Ceiling: at least 12,000 feet AGL
Clouds: sky clear below 12,000 feet AGL
Weather: automated observation with no human augmentation;
there may or may not be significant weather present at this time

METAR text: KAFF 051458Z AUTO 36010KT 10SM CLR 20/M02 A3021 RMK AO2 SLP155 51003
Conditions at: KAFF (USAF ACADEMY/COS, CO, US) observed 1458 UTC 05 May 2016
Temperature: 20.0°C (68°F)
Dewpoint: -2.0°C (28°F) [RH = 23%]
Pressure (altimeter): 30.21 inches Hg (1023.1 mb[Sea-level pressure: 1015.5 mb]
Winds: from the N (360 degrees) at 12 MPH (10 knots; 5.2 m/s)
Visibility: 10 or more miles (16+ km)
Ceiling: at least 12,000 feet AGL
Clouds: sky clear below 12,000 feet AGL
Weather: automated observation with no human augmentation;
there may or may not be significant weather present at this time

METAR text: KAFF 051358Z AUTO 03004KT 10SM CLR 15/01 A3021 RMK AO2 SLP160
Conditions at: KAFF (USAF ACADEMY/COS, CO, US) observed 1358 UTC 05 May 2016
Temperature: 15.0°C (59°F)
Dewpoint: 1.0°C (34°F) [RH = 39%]
Pressure (altimeter): 30.21 inches Hg (1023.1 mb[Sea-level pressure: 1016.0 mb]
Winds: from the NNE (30 degrees) at 5 MPH (4 knots; 2.1 m/s)
Visibility: 10 or more miles (16+ km)
Ceiling: at least 12,000 feet AGL
Clouds: sky clear below 12,000 feet AGL
Weather: automated observation with no human augmentation;
there may or may not be significant weather present at this time

METAR text: KAFF 051258Z AUTO 02006KT 10SM CLR 07/02 A3021 RMK AO2 SLP175
Conditions at: KAFF (USAF ACADEMY/COS, CO, US) observed 1258 UTC 05 May 2016
Temperature: 7.0°C (45°F)
Dewpoint: 2.0°C (36°F) [RH = 70%]
Pressure (altimeter): 30.21 inches Hg (1023.1 mb[Sea-level pressure: 1017.5 mb]
Winds: from the NNE (20 degrees) at 7 MPH (6 knots; 3.1 m/s)
Visibility: 10 or more miles (16+ km)
Ceiling: at least 12,000 feet AGL
Clouds: sky clear below 12,000 feet AGL
Weather: automated observation with no human augmentation;
there may or may not be significant weather present at this time

METAR text: KAFF 051158Z AUTO 36010KT 10SM CLR 03/00 A3020 RMK AO2 SLP182 55001
Conditions at: KAFF (USAF ACADEMY/COS, CO, US) observed 1158 UTC 05 May 2016
Temperature: 3.0°C (37°F)
Dewpoint: 0.0°C (32°F) [RH = 81%]
Pressure (altimeter): 30.20 inches Hg (1022.8 mb[Sea-level pressure: 1018.2 mb]
Winds: from the N (360 degrees) at 12 MPH (10 knots; 5.2 m/s)
Visibility: 10 or more miles (16+ km)
Ceiling: at least 12,000 feet AGL
Clouds: sky clear below 12,000 feet AGL
Weather: automated observation with no human augmentation;
there may or may not be significant weather present at this time

METAR text: KAFF 051058Z AUTO 36009KT 10SM CLR 04/00 A3020 RMK AO2 SLP172
Conditions at: KAFF (USAF ACADEMY/COS, CO, US) observed 1058 UTC 05 May 2016
Temperature: 4.0°C (39°F)
Dewpoint: 0.0°C (32°F) [RH = 75%]
Pressure (altimeter): 30.20 inches Hg (1022.8 mb[Sea-level pressure: 1017.2 mb]
Winds: from the N (360 degrees) at 10 MPH (9 knots; 4.7 m/s)
Visibility: 10 or more miles (16+ km)
Ceiling: at least 12,000 feet AGL
Clouds: sky clear below 12,000 feet AGL
Weather: automated observation with no human augmentation;
there may or may not be significant weather present at this time

METAR text: KAFF 050958Z AUTO 35008KT 10SM CLR 03/00 A3020 RMK AO2 SLP177
Conditions at: KAFF (USAF ACADEMY/COS, CO, US) observed 0958 UTC 05 May 2016
Temperature: 3.0°C (37°F)
Dewpoint: 0.0°C (32°F) [RH = 81%]
Pressure (altimeter): 30.20 inches Hg (1022.8 mb[Sea-level pressure: 1017.7 mb]
Winds: from the N (350 degrees) at 9 MPH (8 knots; 4.2 m/s)
Visibility: 10 or more miles (16+ km)
Ceiling: at least 12,000 feet AGL
Clouds: sky clear below 12,000 feet AGL
Weather: automated observation with no human augmentation;
there may or may not be significant weather present at this time

METAR text: KAFF 050858Z AUTO 36008KT 10SM CLR 04/00 A3021 RMK AO2 SLP175 58007
Conditions at: KAFF (USAF ACADEMY/COS, CO, US) observed 0858 UTC 05 May 2016
Temperature: 4.0°C (39°F)
Dewpoint: 0.0°C (32°F) [RH = 75%]
Pressure (altimeter): 30.21 inches Hg (1023.1 mb[Sea-level pressure: 1017.5 mb]
Winds: from the N (360 degrees) at 9 MPH (8 knots; 4.2 m/s)
Visibility: 10 or more miles (16+ km)
Ceiling: at least 12,000 feet AGL
Clouds: sky clear below 12,000 feet AGL
Weather: automated observation with no human augmentation;
there may or may not be significant weather present at this time